sensor_id;sensor_type;location;lat;lon;timestamp;P1;durP1;ratioP1;P2;durP2;ratioP2
4309;SDS011;2168;53.576;9.980;2023-05-10T00:01:07;3.00;;;3.00;;
4309;SDS011;2168;53.576;9.980;2023-05-10T00:03:32;2.83;;;2.83;;
4309;SDS011;2168;53.576;9.980;2023-05-10T00:05:58;2.60;;;2.60;;
4309;SDS011;2168;53.576;9.980;2023-05-10T00:08:23;2.80;;;2.80;;
4309;SDS011;2168;53.576;9.980;2023-05-10T00:10:48;2.80;;;2.80;;
4309;SDS011;2168;53.576;9.980;2023-05-10T00:13:13;2.87;;;2.87;;
4309;SDS011;2168;53.576;9.980;2023-05-10T00:15:39;2.80;;;2.80;;
4309;SDS011;2168;53.576;9.980;2023-05-10T00:18:04;3.00;;;3.00;;
4309;SDS011;2168;53.576;9.980;2023-05-10T00:20:29;2.90;;;2.90;;
4309;SDS011;2168;53.576;9.980;2023-05-10T00:22:54;2.93;;;2.93;;
4309;SDS011;2168;53.576;9.980;2023-05-10T00:25:19;2.80;;;2.80;;
4309;SDS011;2168;53.576;9.980;2023-05-10T00:27:46;2.73;;;2.73;;
4309;SDS011;2168;53.576;9.980;2023-05-10T00:30:11;3.10;;;3.10;;
4309;SDS011;2168;53.576;9.980;2023-05-10T00:32:36;3.00;;;3.00;;
4309;SDS011;2168;53.576;9.980;2023-05-10T00:35:02;2.60;;;2.60;;
4309;SDS011;2168;53.576;9.980;2023-05-10T00:37:27;2.60;;;2.60;;
4309;SDS011;2168;53.576;9.980;2023-05-10T00:39:52;2.67;;;2.67;;
4309;SDS011;2168;53.576;9.980;2023-05-10T00:42:18;2.70;;;2.70;;
4309;SDS011;2168;53.576;9.980;2023-05-10T00:44:43;2.30;;;2.30;;
4309;SDS011;2168;53.576;9.980;2023-05-10T00:47:08;2.70;;;2.70;;
4309;SDS011;2168;53.576;9.980;2023-05-10T00:49:34;2.87;;;2.87;;
4309;SDS011;2168;53.576;9.980;2023-05-10T00:51:59;3.13;;;3.13;;
4309;SDS011;2168;53.576;9.980;2023-05-10T00:54:25;3.00;;;3.00;;
4309;SDS011;2168;53.576;9.980;2023-05-10T00:56:50;3.10;;;3.10;;
4309;SDS011;2168;53.576;9.980;2023-05-10T00:59:16;2.93;;;2.93;;
4309;SDS011;2168;53.576;9.980;2023-05-10T01:01:43;2.50;;;2.50;;
4309;SDS011;2168;53.576;9.980;2023-05-10T01:04:08;2.60;;;2.60;;
4309;SDS011;2168;53.576;9.980;2023-05-10T01:06:34;2.70;;;2.70;;
4309;SDS011;2168;53.576;9.980;2023-05-10T01:09:00;2.80;;;2.80;;
4309;SDS011;2168;53.576;9.980;2023-05-10T01:11:25;2.97;;;2.97;;
4309;SDS011;2168;53.576;9.980;2023-05-10T01:13:52;2.43;;;2.43;;
4309;SDS011;2168;53.576;9.980;2023-05-10T01:16:19;2.50;;;2.50;;
4309;SDS011;2168;53.576;9.980;2023-05-10T01:18:44;2.50;;;2.50;;
4309;SDS011;2168;53.576;9.980;2023-05-10T01:29:13;2.77;;;2.77;;
4309;SDS011;2168;53.576;9.980;2023-05-10T01:34:17;3.20;;;3.20;;
4309;SDS011;2168;53.576;9.980;2023-05-10T01:39:24;2.50;;;2.50;;
4309;SDS011;2168;53.576;9.980;2023-05-10T01:47:15;2.80;;;2.80;;
4309;SDS011;2168;53.576;9.980;2023-05-10T01:49:52;3.00;;;3.00;;
4309;SDS011;2168;53.576;9.980;2023-05-10T01:52:18;2.40;;;2.40;;
4309;SDS011;2168;53.576;9.980;2023-05-10T01:54:46;2.80;;;2.80;;
4309;SDS011;2168;53.576;9.980;2023-05-10T01:57:14;2.77;;;2.77;;
4309;SDS011;2168;53.576;9.980;2023-05-10T01:59:40;2.70;;;2.70;;
4309;SDS011;2168;53.576;9.980;2023-05-10T02:02:08;2.53;;;2.53;;
4309;SDS011;2168;53.576;9.980;2023-05-10T02:04:36;2.23;;;2.23;;
4309;SDS011;2168;53.576;9.980;2023-05-10T02:07:02;2.60;;;2.60;;
4309;SDS011;2168;53.576;9.980;2023-05-10T02:09:27;2.43;;;2.43;;
4309;SDS011;2168;53.576;9.980;2023-05-10T02:11:54;2.70;;;2.70;;
4309;SDS011;2168;53.576;9.980;2023-05-10T02:14:20;2.70;;;2.70;;
4309;SDS011;2168;53.576;9.980;2023-05-10T02:16:46;2.70;;;2.70;;
4309;SDS011;2168;53.576;9.980;2023-05-10T02:19:11;2.70;;;2.70;;
4309;SDS011;2168;53.576;9.980;2023-05-10T02:21:38;2.50;;;2.50;;
4309;SDS011;2168;53.576;9.980;2023-05-10T02:24:04;2.40;;;2.40;;
4309;SDS011;2168;53.576;9.980;2023-05-10T02:26:29;2.50;;;2.50;;
4309;SDS011;2168;53.576;9.980;2023-05-10T02:28:56;2.90;;;2.90;;
4309;SDS011;2168;53.576;9.980;2023-05-10T02:31:22;2.60;;;2.60;;
4309;SDS011;2168;53.576;9.980;2023-05-10T02:33:47;2.47;;;2.47;;
4309;SDS011;2168;53.576;9.980;2023-05-10T02:36:13;2.20;;;2.20;;
4309;SDS011;2168;53.576;9.980;2023-05-10T02:38:38;2.53;;;2.53;;
4309;SDS011;2168;53.576;9.980;2023-05-10T02:41:04;2.63;;;2.63;;
4309;SDS011;2168;53.576;9.980;2023-05-10T02:43:30;2.43;;;2.43;;
4309;SDS011;2168;53.576;9.980;2023-05-10T02:45:57;2.43;;;2.43;;
4309;SDS011;2168;53.576;9.980;2023-05-10T02:48:22;2.57;;;2.57;;
4309;SDS011;2168;53.576;9.980;2023-05-10T02:50:47;2.40;;;2.40;;
4309;SDS011;2168;53.576;9.980;2023-05-10T02:53:18;2.67;;;2.67;;
4309;SDS011;2168;53.576;9.980;2023-05-10T02:55:44;2.80;;;2.80;;
4309;SDS011;2168;53.576;9.980;2023-05-10T02:58:12;2.67;;;2.67;;
4309;SDS011;2168;53.576;9.980;2023-05-10T03:00:37;2.70;;;2.70;;
4309;SDS011;2168;53.576;9.980;2023-05-10T03:03:02;2.90;;;2.90;;
4309;SDS011;2168;53.576;9.980;2023-05-10T03:05:28;2.30;;;2.30;;
4309;SDS011;2168;53.576;9.980;2023-05-10T03:07:53;2.70;;;2.70;;
4309;SDS011;2168;53.576;9.980;2023-05-10T03:10:19;2.47;;;2.47;;
4309;SDS011;2168;53.576;9.980;2023-05-10T03:17:52;2.40;;;2.40;;
4309;SDS011;2168;53.576;9.980;2023-05-10T03:20:26;2.40;;;2.40;;
4309;SDS011;2168;53.576;9.980;2023-05-10T03:23:00;2.47;;;2.47;;
4309;SDS011;2168;53.576;9.980;2023-05-10T03:25:27;2.50;;;2.50;;
4309;SDS011;2168;53.576;9.980;2023-05-10T03:27:54;2.30;;;2.30;;
4309;SDS011;2168;53.576;9.980;2023-05-10T03:30:21;2.50;;;2.50;;
4309;SDS011;2168;53.576;9.980;2023-05-10T03:32:46;2.40;;;2.40;;
4309;SDS011;2168;53.576;9.980;2023-05-10T03:35:12;2.20;;;2.20;;
4309;SDS011;2168;53.576;9.980;2023-05-10T03:37:38;2.30;;;2.30;;
4309;SDS011;2168;53.576;9.980;2023-05-10T03:40:03;2.20;;;2.20;;
4309;SDS011;2168;53.576;9.980;2023-05-10T03:42:28;2.20;;;2.20;;
4309;SDS011;2168;53.576;9.980;2023-05-10T03:44:54;2.30;;;2.30;;
4309;SDS011;2168;53.576;9.980;2023-05-10T03:47:19;2.23;;;2.23;;
4309;SDS011;2168;53.576;9.980;2023-05-10T03:49:44;2.17;;;2.17;;
4309;SDS011;2168;53.576;9.980;2023-05-10T03:52:10;2.23;;;2.23;;
4309;SDS011;2168;53.576;9.980;2023-05-10T03:54:35;2.40;;;2.40;;
4309;SDS011;2168;53.576;9.980;2023-05-10T03:57:00;2.20;;;2.20;;
4309;SDS011;2168;53.576;9.980;2023-05-10T03:59:25;2.10;;;2.10;;
4309;SDS011;2168;53.576;9.980;2023-05-10T04:01:51;2.40;;;2.40;;
4309;SDS011;2168;53.576;9.980;2023-05-10T04:04:16;2.30;;;2.30;;
4309;SDS011;2168;53.576;9.980;2023-05-10T04:06:43;2.03;;;2.03;;
4309;SDS011;2168;53.576;9.980;2023-05-10T04:09:08;1.90;;;1.90;;
4309;SDS011;2168;53.576;9.980;2023-05-10T04:11:34;2.20;;;2.20;;
4309;SDS011;2168;53.576;9.980;2023-05-10T04:13:59;1.90;;;1.90;;
4309;SDS011;2168;53.576;9.980;2023-05-10T04:16:24;2.10;;;2.10;;
4309;SDS011;2168;53.576;9.980;2023-05-10T04:18:49;2.17;;;2.17;;
4309;SDS011;2168;53.576;9.980;2023-05-10T04:21:15;2.00;;;2.00;;
4309;SDS011;2168;53.576;9.980;2023-05-10T04:23:40;1.90;;;1.90;;
4309;SDS011;2168;53.576;9.980;2023-05-10T04:26:05;1.93;;;1.93;;
4309;SDS011;2168;53.576;9.980;2023-05-10T04:28:31;2.10;;;2.10;;
4309;SDS011;2168;53.576;9.980;2023-05-10T04:31:00;2.00;;;2.00;;
4309;SDS011;2168;53.576;9.980;2023-05-10T04:33:25;2.13;;;2.13;;
4309;SDS011;2168;53.576;9.980;2023-05-10T04:35:50;1.90;;;1.90;;
4309;SDS011;2168;53.576;9.980;2023-05-10T04:38:16;2.40;;;2.40;;
4309;SDS011;2168;53.576;9.980;2023-05-10T04:40:41;1.93;;;1.93;;
4309;SDS011;2168;53.576;9.980;2023-05-10T04:43:06;2.20;;;2.20;;
4309;SDS011;2168;53.576;9.980;2023-05-10T04:45:31;2.10;;;2.10;;
4309;SDS011;2168;53.576;9.980;2023-05-10T04:47:56;1.70;;;1.70;;
4309;SDS011;2168;53.576;9.980;2023-05-10T04:50:21;2.00;;;2.00;;
4309;SDS011;2168;53.576;9.980;2023-05-10T04:52:47;1.80;;;1.80;;
4309;SDS011;2168;53.576;9.980;2023-05-10T04:55:12;1.80;;;1.80;;
4309;SDS011;2168;53.576;9.980;2023-05-10T04:57:37;1.90;;;1.90;;
4309;SDS011;2168;53.576;9.980;2023-05-10T05:00:02;1.80;;;1.80;;
4309;SDS011;2168;53.576;9.980;2023-05-10T05:02:27;1.90;;;1.90;;
4309;SDS011;2168;53.576;9.980;2023-05-10T05:04:53;2.10;;;2.10;;
4309;SDS011;2168;53.576;9.980;2023-05-10T05:07:18;1.93;;;1.93;;
4309;SDS011;2168;53.576;9.980;2023-05-10T05:09:43;2.30;;;2.30;;
4309;SDS011;2168;53.576;9.980;2023-05-10T05:12:08;2.20;;;2.20;;
4309;SDS011;2168;53.576;9.980;2023-05-10T05:14:38;2.40;;;2.40;;
4309;SDS011;2168;53.576;9.980;2023-05-10T05:17:03;2.13;;;2.13;;
4309;SDS011;2168;53.576;9.980;2023-05-10T05:19:30;2.23;;;2.23;;
4309;SDS011;2168;53.576;9.980;2023-05-10T05:21:55;2.20;;;2.20;;
4309;SDS011;2168;53.576;9.980;2023-05-10T05:24:21;2.40;;;2.40;;
4309;SDS011;2168;53.576;9.980;2023-05-10T05:26:46;2.40;;;2.40;;
4309;SDS011;2168;53.576;9.980;2023-05-10T05:29:12;2.40;;;2.40;;
4309;SDS011;2168;53.576;9.980;2023-05-10T05:31:37;2.30;;;2.30;;
4309;SDS011;2168;53.576;9.980;2023-05-10T05:34:02;2.20;;;2.20;;
4309;SDS011;2168;53.576;9.980;2023-05-10T05:36:27;2.20;;;2.20;;
4309;SDS011;2168;53.576;9.980;2023-05-10T05:38:52;1.93;;;1.93;;
4309;SDS011;2168;53.576;9.980;2023-05-10T05:41:18;2.03;;;2.03;;
4309;SDS011;2168;53.576;9.980;2023-05-10T05:43:43;2.17;;;2.17;;
4309;SDS011;2168;53.576;9.980;2023-05-10T05:46:08;1.90;;;1.90;;
4309;SDS011;2168;53.576;9.980;2023-05-10T05:48:33;2.30;;;2.30;;
4309;SDS011;2168;53.576;9.980;2023-05-10T05:50:58;1.60;;;1.60;;
4309;SDS011;2168;53.576;9.980;2023-05-10T05:53:24;2.03;;;2.03;;
4309;SDS011;2168;53.576;9.980;2023-05-10T05:58:18;1.90;;;1.90;;
4309;SDS011;2168;53.576;9.980;2023-05-10T06:00:43;2.30;;;2.30;;
4309;SDS011;2168;53.576;9.980;2023-05-10T06:03:08;2.10;;;2.10;;
4309;SDS011;2168;53.576;9.980;2023-05-10T06:05:33;2.30;;;2.30;;
4309;SDS011;2168;53.576;9.980;2023-05-10T06:07:59;1.97;;;1.97;;
4309;SDS011;2168;53.576;9.980;2023-05-10T06:10:24;2.30;;;2.30;;
4309;SDS011;2168;53.576;9.980;2023-05-10T06:12:50;2.17;;;2.17;;
4309;SDS011;2168;53.576;9.980;2023-05-10T06:15:15;2.10;;;2.10;;
4309;SDS011;2168;53.576;9.980;2023-05-10T06:17:40;2.10;;;2.10;;
4309;SDS011;2168;53.576;9.980;2023-05-10T06:20:06;2.00;;;2.00;;
4309;SDS011;2168;53.576;9.980;2023-05-10T06:22:31;2.30;;;2.30;;
4309;SDS011;2168;53.576;9.980;2023-05-10T06:24:56;2.03;;;2.03;;
4309;SDS011;2168;53.576;9.980;2023-05-10T06:27:22;2.57;;;2.57;;
4309;SDS011;2168;53.576;9.980;2023-05-10T06:29:47;2.70;;;2.70;;
4309;SDS011;2168;53.576;9.980;2023-05-10T06:32:12;2.60;;;2.60;;
4309;SDS011;2168;53.576;9.980;2023-05-10T06:34:37;2.20;;;2.20;;
4309;SDS011;2168;53.576;9.980;2023-05-10T06:37:02;2.70;;;2.70;;
4309;SDS011;2168;53.576;9.980;2023-05-10T06:39:28;2.40;;;2.40;;
4309;SDS011;2168;53.576;9.980;2023-05-10T06:41:53;2.57;;;2.57;;
4309;SDS011;2168;53.576;9.980;2023-05-10T06:44:19;2.40;;;2.40;;
4309;SDS011;2168;53.576;9.980;2023-05-10T06:46:44;2.10;;;2.10;;
4309;SDS011;2168;53.576;9.980;2023-05-10T06:49:09;2.20;;;2.20;;
4309;SDS011;2168;53.576;9.980;2023-05-10T06:51:35;2.30;;;2.30;;
4309;SDS011;2168;53.576;9.980;2023-05-10T06:54:00;2.20;;;2.20;;
4309;SDS011;2168;53.576;9.980;2023-05-10T06:56:25;2.20;;;2.20;;
4309;SDS011;2168;53.576;9.980;2023-05-10T06:58:51;2.33;;;2.33;;
4309;SDS011;2168;53.576;9.980;2023-05-10T07:01:16;2.60;;;2.60;;
4309;SDS011;2168;53.576;9.980;2023-05-10T07:03:41;2.23;;;2.23;;
4309;SDS011;2168;53.576;9.980;2023-05-10T07:06:06;2.60;;;2.60;;
4309;SDS011;2168;53.576;9.980;2023-05-10T07:08:32;2.90;;;2.90;;
4309;SDS011;2168;53.576;9.980;2023-05-10T07:11:04;2.27;;;2.27;;
4309;SDS011;2168;53.576;9.980;2023-05-10T07:13:30;2.30;;;2.30;;
4309;SDS011;2168;53.576;9.980;2023-05-10T07:15:56;2.30;;;2.30;;
4309;SDS011;2168;53.576;9.980;2023-05-10T07:18:21;1.80;;;1.80;;
4309;SDS011;2168;53.576;9.980;2023-05-10T07:20:46;2.53;;;2.53;;
4309;SDS011;2168;53.576;9.980;2023-05-10T07:23:11;2.30;;;2.30;;
4309;SDS011;2168;53.576;9.980;2023-05-10T07:25:37;2.40;;;2.40;;
4309;SDS011;2168;53.576;9.980;2023-05-10T07:28:02;2.07;;;2.07;;
4309;SDS011;2168;53.576;9.980;2023-05-10T07:30:28;2.17;;;2.17;;
4309;SDS011;2168;53.576;9.980;2023-05-10T07:32:53;2.50;;;2.50;;
4309;SDS011;2168;53.576;9.980;2023-05-10T07:35:18;2.37;;;2.37;;
4309;SDS011;2168;53.576;9.980;2023-05-10T07:37:43;2.60;;;2.60;;
4309;SDS011;2168;53.576;9.980;2023-05-10T07:40:08;2.40;;;2.40;;
4309;SDS011;2168;53.576;9.980;2023-05-10T07:42:34;2.20;;;2.20;;
4309;SDS011;2168;53.576;9.980;2023-05-10T07:44:59;2.37;;;2.37;;
4309;SDS011;2168;53.576;9.980;2023-05-10T07:47:24;2.40;;;2.40;;
4309;SDS011;2168;53.576;9.980;2023-05-10T07:49:49;2.60;;;2.60;;
4309;SDS011;2168;53.576;9.980;2023-05-10T07:52:14;2.60;;;2.60;;
4309;SDS011;2168;53.576;9.980;2023-05-10T07:54:40;2.50;;;2.50;;
4309;SDS011;2168;53.576;9.980;2023-05-10T07:57:05;2.20;;;2.20;;
4309;SDS011;2168;53.576;9.980;2023-05-10T07:59:31;2.50;;;2.50;;
4309;SDS011;2168;53.576;9.980;2023-05-10T08:01:57;2.63;;;2.63;;
4309;SDS011;2168;53.576;9.980;2023-05-10T08:04:22;2.33;;;2.33;;
4309;SDS011;2168;53.576;9.980;2023-05-10T08:06:47;2.30;;;2.30;;
4309;SDS011;2168;53.576;9.980;2023-05-10T08:09:12;2.50;;;2.50;;
4309;SDS011;2168;53.576;9.980;2023-05-10T08:11:38;3.00;;;3.00;;
4309;SDS011;2168;53.576;9.980;2023-05-10T08:14:03;2.70;;;2.70;;
4309;SDS011;2168;53.576;9.980;2023-05-10T08:16:28;2.47;;;2.47;;
4309;SDS011;2168;53.576;9.980;2023-05-10T08:18:53;2.57;;;2.57;;
4309;SDS011;2168;53.576;9.980;2023-05-10T08:21:20;2.50;;;2.50;;
4309;SDS011;2168;53.576;9.980;2023-05-10T08:23:45;2.50;;;2.50;;
4309;SDS011;2168;53.576;9.980;2023-05-10T08:26:10;2.50;;;2.50;;
4309;SDS011;2168;53.576;9.980;2023-05-10T08:28:35;2.50;;;2.50;;
4309;SDS011;2168;53.576;9.980;2023-05-10T08:31:01;2.50;;;2.50;;
4309;SDS011;2168;53.576;9.980;2023-05-10T08:33:26;2.40;;;2.40;;
4309;SDS011;2168;53.576;9.980;2023-05-10T08:35:51;2.00;;;2.00;;
4309;SDS011;2168;53.576;9.980;2023-05-10T08:38:17;2.10;;;2.10;;
4309;SDS011;2168;53.576;9.980;2023-05-10T08:40:43;2.40;;;2.40;;
4309;SDS011;2168;53.576;9.980;2023-05-10T08:43:09;2.30;;;2.30;;
4309;SDS011;2168;53.576;9.980;2023-05-10T08:45:44;2.30;;;2.30;;
4309;SDS011;2168;53.576;9.980;2023-05-10T08:48:13;2.57;;;2.57;;
4309;SDS011;2168;53.576;9.980;2023-05-10T08:50:39;2.57;;;2.57;;
4309;SDS011;2168;53.576;9.980;2023-05-10T08:53:05;2.13;;;2.13;;
4309;SDS011;2168;53.576;9.980;2023-05-10T08:55:32;2.63;;;2.63;;
4309;SDS011;2168;53.576;9.980;2023-05-10T08:57:58;2.43;;;2.43;;
4309;SDS011;2168;53.576;9.980;2023-05-10T09:00:23;2.30;;;2.30;;
4309;SDS011;2168;53.576;9.980;2023-05-10T09:02:49;2.70;;;2.70;;
4309;SDS011;2168;53.576;9.980;2023-05-10T09:05:15;2.10;;;2.10;;
4309;SDS011;2168;53.576;9.980;2023-05-10T09:07:41;1.90;;;1.90;;
4309;SDS011;2168;53.576;9.980;2023-05-10T09:10:06;2.00;;;2.00;;
4309;SDS011;2168;53.576;9.980;2023-05-10T09:12:32;2.43;;;2.43;;
4309;SDS011;2168;53.576;9.980;2023-05-10T09:14:58;2.33;;;2.33;;
4309;SDS011;2168;53.576;9.980;2023-05-10T09:17:24;2.40;;;2.40;;
4309;SDS011;2168;53.576;9.980;2023-05-10T09:19:56;2.50;;;2.50;;
4309;SDS011;2168;53.576;9.980;2023-05-10T09:22:21;2.27;;;2.27;;
4309;SDS011;2168;53.576;9.980;2023-05-10T09:24:47;2.40;;;2.40;;
4309;SDS011;2168;53.576;9.980;2023-05-10T09:27:12;2.33;;;2.33;;
4309;SDS011;2168;53.576;9.980;2023-05-10T09:29:41;2.20;;;2.20;;
4309;SDS011;2168;53.576;9.980;2023-05-10T09:32:07;2.20;;;2.20;;
4309;SDS011;2168;53.576;9.980;2023-05-10T09:34:32;2.10;;;2.10;;
4309;SDS011;2168;53.576;9.980;2023-05-10T09:37:00;2.50;;;2.50;;
4309;SDS011;2168;53.576;9.980;2023-05-10T09:39:36;2.03;;;2.03;;
4309;SDS011;2168;53.576;9.980;2023-05-10T09:42:03;1.90;;;1.90;;
4309;SDS011;2168;53.576;9.980;2023-05-10T09:44:28;2.20;;;2.20;;
4309;SDS011;2168;53.576;9.980;2023-05-10T09:46:54;2.30;;;2.30;;
4309;SDS011;2168;53.576;9.980;2023-05-10T09:49:20;2.30;;;2.30;;
4309;SDS011;2168;53.576;9.980;2023-05-10T09:51:45;2.30;;;2.30;;
4309;SDS011;2168;53.576;9.980;2023-05-10T09:56:36;2.30;;;2.30;;
4309;SDS011;2168;53.576;9.980;2023-05-10T09:59:03;2.20;;;2.20;;
4309;SDS011;2168;53.576;9.980;2023-05-10T10:01:29;2.00;;;2.00;;
4309;SDS011;2168;53.576;9.980;2023-05-10T10:03:55;1.73;;;1.73;;
4309;SDS011;2168;53.576;9.980;2023-05-10T10:06:22;1.43;;;1.43;;
4309;SDS011;2168;53.576;9.980;2023-05-10T10:08:48;1.37;;;1.37;;
4309;SDS011;2168;53.576;9.980;2023-05-10T10:11:13;1.30;;;1.30;;
4309;SDS011;2168;53.576;9.980;2023-05-10T10:13:38;0.90;;;0.90;;
4309;SDS011;2168;53.576;9.980;2023-05-10T10:16:04;0.80;;;0.80;;
4309;SDS011;2168;53.576;9.980;2023-05-10T10:18:30;0.70;;;0.70;;
4309;SDS011;2168;53.576;9.980;2023-05-10T10:20:55;0.80;;;0.80;;
4309;SDS011;2168;53.576;9.980;2023-05-10T10:23:21;0.70;;;0.70;;
4309;SDS011;2168;53.576;9.980;2023-05-10T10:25:46;0.70;;;0.70;;
4309;SDS011;2168;53.576;9.980;2023-05-10T10:28:23;0.60;;;0.60;;
4309;SDS011;2168;53.576;9.980;2023-05-10T10:30:49;0.50;;;0.50;;
4309;SDS011;2168;53.576;9.980;2023-05-10T10:36:01;0.70;;;0.70;;
4309;SDS011;2168;53.576;9.980;2023-05-10T10:41:12;0.50;;;0.50;;
4309;SDS011;2168;53.576;9.980;2023-05-10T10:44:22;0.50;;;0.50;;
4309;SDS011;2168;53.576;9.980;2023-05-10T10:46:49;0.30;;;0.30;;
4309;SDS011;2168;53.576;9.980;2023-05-10T10:49:22;0.40;;;0.40;;
4309;SDS011;2168;53.576;9.980;2023-05-10T10:54:31;0.47;;;0.47;;
4309;SDS011;2168;53.576;9.980;2023-05-10T10:57:13;0.40;;;0.40;;
4309;SDS011;2168;53.576;9.980;2023-05-10T10:59:41;0.40;;;0.40;;
4309;SDS011;2168;53.576;9.980;2023-05-10T11:02:08;0.40;;;0.40;;
4309;SDS011;2168;53.576;9.980;2023-05-10T11:04:42;0.40;;;0.40;;
4309;SDS011;2168;53.576;9.980;2023-05-10T11:07:20;0.40;;;0.40;;
4309;SDS011;2168;53.576;9.980;2023-05-10T11:09:46;0.30;;;0.30;;
4309;SDS011;2168;53.576;9.980;2023-05-10T11:12:11;0.50;;;0.50;;
4309;SDS011;2168;53.576;9.980;2023-05-10T11:14:37;0.40;;;0.40;;
4309;SDS011;2168;53.576;9.980;2023-05-10T11:17:02;0.50;;;0.50;;
4309;SDS011;2168;53.576;9.980;2023-05-10T11:20:02;0.40;;;0.40;;
4309;SDS011;2168;53.576;9.980;2023-05-10T11:22:28;0.40;;;0.40;;
4309;SDS011;2168;53.576;9.980;2023-05-10T11:24:56;0.50;;;0.50;;
4309;SDS011;2168;53.576;9.980;2023-05-10T11:27:21;0.40;;;0.40;;
4309;SDS011;2168;53.576;9.980;2023-05-10T11:29:50;0.50;;;0.50;;
4309;SDS011;2168;53.576;9.980;2023-05-10T11:32:15;0.37;;;0.37;;
4309;SDS011;2168;53.576;9.980;2023-05-10T11:34:41;0.30;;;0.30;;
4309;SDS011;2168;53.576;9.980;2023-05-10T11:37:06;0.40;;;0.40;;
4309;SDS011;2168;53.576;9.980;2023-05-10T11:39:31;0.50;;;0.50;;
4309;SDS011;2168;53.576;9.980;2023-05-10T11:41:58;0.50;;;0.50;;
4309;SDS011;2168;53.576;9.980;2023-05-10T11:44:29;0.50;;;0.50;;
4309;SDS011;2168;53.576;9.980;2023-05-10T11:46:54;0.50;;;0.50;;
4309;SDS011;2168;53.576;9.980;2023-05-10T11:49:19;0.50;;;0.50;;
4309;SDS011;2168;53.576;9.980;2023-05-10T11:51:45;0.50;;;0.50;;
4309;SDS011;2168;53.576;9.980;2023-05-10T11:54:10;0.50;;;0.50;;
4309;SDS011;2168;53.576;9.980;2023-05-10T11:56:39;0.40;;;0.40;;
4309;SDS011;2168;53.576;9.980;2023-05-10T11:59:04;0.40;;;0.40;;
4309;SDS011;2168;53.576;9.980;2023-05-10T12:01:30;0.50;;;0.50;;
4309;SDS011;2168;53.576;9.980;2023-05-10T12:03:56;0.40;;;0.40;;
4309;SDS011;2168;53.576;9.980;2023-05-10T12:06:26;0.40;;;0.40;;
4309;SDS011;2168;53.576;9.980;2023-05-10T12:08:51;0.40;;;0.40;;
4309;SDS011;2168;53.576;9.980;2023-05-10T12:11:18;0.30;;;0.30;;
4309;SDS011;2168;53.576;9.980;2023-05-10T12:13:44;0.30;;;0.30;;
4309;SDS011;2168;53.576;9.980;2023-05-10T12:16:45;0.30;;;0.30;;
4309;SDS011;2168;53.576;9.980;2023-05-10T12:19:03;0.30;;;0.30;;
4309;SDS011;2168;53.576;9.980;2023-05-10T12:21:29;0.30;;;0.30;;
4309;SDS011;2168;53.576;9.980;2023-05-10T12:23:58;0.40;;;0.40;;
4309;SDS011;2168;53.576;9.980;2023-05-10T12:26:25;0.40;;;0.40;;
4309;SDS011;2168;53.576;9.980;2023-05-10T12:28:52;0.30;;;0.30;;
4309;SDS011;2168;53.576;9.980;2023-05-10T12:31:17;0.30;;;0.30;;
4309;SDS011;2168;53.576;9.980;2023-05-10T12:33:43;0.30;;;0.30;;
4309;SDS011;2168;53.576;9.980;2023-05-10T12:36:09;0.30;;;0.30;;
4309;SDS011;2168;53.576;9.980;2023-05-10T12:38:38;0.20;;;0.20;;
4309;SDS011;2168;53.576;9.980;2023-05-10T12:41:08;0.30;;;0.30;;
4309;SDS011;2168;53.576;9.980;2023-05-10T12:43:34;0.30;;;0.30;;
4309;SDS011;2168;53.576;9.980;2023-05-10T12:48:31;0.30;;;0.30;;
4309;SDS011;2168;53.576;9.980;2023-05-10T12:50:56;0.30;;;0.30;;
4309;SDS011;2168;53.576;9.980;2023-05-10T12:53:21;0.40;;;0.40;;
4309;SDS011;2168;53.576;9.980;2023-05-10T12:55:47;0.40;;;0.40;;
4309;SDS011;2168;53.576;9.980;2023-05-10T12:58:12;0.43;;;0.43;;
4309;SDS011;2168;53.576;9.980;2023-05-10T13:00:37;0.40;;;0.40;;
4309;SDS011;2168;53.576;9.980;2023-05-10T13:03:03;0.40;;;0.40;;
4309;SDS011;2168;53.576;9.980;2023-05-10T13:05:28;0.40;;;0.40;;
4309;SDS011;2168;53.576;9.980;2023-05-10T13:07:53;0.40;;;0.40;;
4309;SDS011;2168;53.576;9.980;2023-05-10T13:10:18;0.60;;;0.60;;
4309;SDS011;2168;53.576;9.980;2023-05-10T13:12:44;0.50;;;0.50;;
4309;SDS011;2168;53.576;9.980;2023-05-10T13:15:09;0.60;;;0.60;;
4309;SDS011;2168;53.576;9.980;2023-05-10T13:17:34;0.60;;;0.60;;
4309;SDS011;2168;53.576;9.980;2023-05-10T13:19:59;0.50;;;0.50;;
4309;SDS011;2168;53.576;9.980;2023-05-10T13:22:24;0.50;;;0.50;;
4309;SDS011;2168;53.576;9.980;2023-05-10T13:24:50;0.50;;;0.50;;
4309;SDS011;2168;53.576;9.980;2023-05-10T13:27:15;0.50;;;0.50;;
4309;SDS011;2168;53.576;9.980;2023-05-10T13:29:40;0.60;;;0.60;;
4309;SDS011;2168;53.576;9.980;2023-05-10T13:32:05;0.73;;;0.73;;
4309;SDS011;2168;53.576;9.980;2023-05-10T13:34:31;0.60;;;0.60;;
4309;SDS011;2168;53.576;9.980;2023-05-10T13:36:56;0.67;;;0.67;;
4309;SDS011;2168;53.576;9.980;2023-05-10T13:39:22;0.60;;;0.60;;
4309;SDS011;2168;53.576;9.980;2023-05-10T13:41:47;0.70;;;0.70;;
4309;SDS011;2168;53.576;9.980;2023-05-10T13:44:13;0.63;;;0.63;;
4309;SDS011;2168;53.576;9.980;2023-05-10T13:46:39;0.70;;;0.70;;
4309;SDS011;2168;53.576;9.980;2023-05-10T13:49:04;0.60;;;0.60;;
4309;SDS011;2168;53.576;9.980;2023-05-10T13:51:29;0.60;;;0.60;;
4309;SDS011;2168;53.576;9.980;2023-05-10T13:53:56;0.50;;;0.50;;
4309;SDS011;2168;53.576;9.980;2023-05-10T13:56:21;0.60;;;0.60;;
4309;SDS011;2168;53.576;9.980;2023-05-10T13:58:46;0.50;;;0.50;;
4309;SDS011;2168;53.576;9.980;2023-05-10T14:01:12;0.50;;;0.50;;
4309;SDS011;2168;53.576;9.980;2023-05-10T14:03:37;0.60;;;0.60;;
4309;SDS011;2168;53.576;9.980;2023-05-10T14:06:02;0.60;;;0.60;;
4309;SDS011;2168;53.576;9.980;2023-05-10T14:08:28;0.70;;;0.70;;
4309;SDS011;2168;53.576;9.980;2023-05-10T14:10:53;0.40;;;0.40;;
4309;SDS011;2168;53.576;9.980;2023-05-10T14:13:18;0.70;;;0.70;;
4309;SDS011;2168;53.576;9.980;2023-05-10T14:15:43;0.70;;;0.70;;
4309;SDS011;2168;53.576;9.980;2023-05-10T14:18:09;0.77;;;0.77;;
4309;SDS011;2168;53.576;9.980;2023-05-10T14:20:34;0.57;;;0.57;;
4309;SDS011;2168;53.576;9.980;2023-05-10T14:22:59;0.80;;;0.80;;
4309;SDS011;2168;53.576;9.980;2023-05-10T14:25:25;0.87;;;0.87;;
4309;SDS011;2168;53.576;9.980;2023-05-10T14:27:50;0.80;;;0.80;;
4309;SDS011;2168;53.576;9.980;2023-05-10T14:30:15;0.93;;;0.93;;
4309;SDS011;2168;53.576;9.980;2023-05-10T14:32:41;0.80;;;0.80;;
4309;SDS011;2168;53.576;9.980;2023-05-10T14:35:06;0.80;;;0.80;;
4309;SDS011;2168;53.576;9.980;2023-05-10T14:37:35;0.77;;;0.77;;
4309;SDS011;2168;53.576;9.980;2023-05-10T14:40:01;0.83;;;0.83;;
4309;SDS011;2168;53.576;9.980;2023-05-10T14:42:27;0.70;;;0.70;;
4309;SDS011;2168;53.576;9.980;2023-05-10T14:44:53;0.90;;;0.90;;
4309;SDS011;2168;53.576;9.980;2023-05-10T14:47:18;0.90;;;0.90;;
4309;SDS011;2168;53.576;9.980;2023-05-10T14:49:43;0.70;;;0.70;;
4309;SDS011;2168;53.576;9.980;2023-05-10T14:52:08;0.70;;;0.70;;
4309;SDS011;2168;53.576;9.980;2023-05-10T14:54:33;0.50;;;0.50;;
4309;SDS011;2168;53.576;9.980;2023-05-10T14:56:59;0.50;;;0.50;;
4309;SDS011;2168;53.576;9.980;2023-05-10T14:59:25;0.60;;;0.60;;
4309;SDS011;2168;53.576;9.980;2023-05-10T15:01:50;0.50;;;0.50;;
4309;SDS011;2168;53.576;9.980;2023-05-10T15:04:15;0.60;;;0.60;;
4309;SDS011;2168;53.576;9.980;2023-05-10T15:06:41;0.53;;;0.53;;
4309;SDS011;2168;53.576;9.980;2023-05-10T15:09:06;0.80;;;0.80;;
4309;SDS011;2168;53.576;9.980;2023-05-10T15:11:32;0.50;;;0.50;;
4309;SDS011;2168;53.576;9.980;2023-05-10T15:13:57;0.50;;;0.50;;
4309;SDS011;2168;53.576;9.980;2023-05-10T15:16:22;0.60;;;0.60;;
4309;SDS011;2168;53.576;9.980;2023-05-10T15:18:47;0.70;;;0.70;;
4309;SDS011;2168;53.576;9.980;2023-05-10T15:21:13;0.60;;;0.60;;
4309;SDS011;2168;53.576;9.980;2023-05-10T15:23:38;0.70;;;0.70;;
4309;SDS011;2168;53.576;9.980;2023-05-10T15:26:03;0.80;;;0.80;;
4309;SDS011;2168;53.576;9.980;2023-05-10T15:28:28;0.80;;;0.80;;
4309;SDS011;2168;53.576;9.980;2023-05-10T15:30:54;0.80;;;0.80;;
4309;SDS011;2168;53.576;9.980;2023-05-10T15:33:20;0.70;;;0.70;;
4309;SDS011;2168;53.576;9.980;2023-05-10T15:35:45;0.80;;;0.80;;
4309;SDS011;2168;53.576;9.980;2023-05-10T15:38:10;0.70;;;0.70;;
4309;SDS011;2168;53.576;9.980;2023-05-10T15:40:35;0.70;;;0.70;;
4309;SDS011;2168;53.576;9.980;2023-05-10T15:43:01;0.70;;;0.70;;
4309;SDS011;2168;53.576;9.980;2023-05-10T15:45:26;0.70;;;0.70;;
4309;SDS011;2168;53.576;9.980;2023-05-10T15:47:51;0.70;;;0.70;;